createdAt,value
2018-09-10T00:00:11.215Z,20.34
2018-09-10T00:01:11.208Z,20.15
2018-09-10T00:02:11.200Z,20.19
2018-09-10T00:03:11.177Z,20.22
2018-09-10T00:04:11.196Z,20.19
2018-09-10T00:05:11.157Z,20.19
2018-09-10T00:06:11.181Z,20.20
2018-09-10T00:07:11.137Z,20.16
2018-09-10T00:08:11.127Z,20.22
2018-09-10T00:09:11.150Z,20.25
2018-09-10T00:10:11.116Z,20.30
2018-09-10T00:11:11.092Z,20.17
2018-09-10T00:12:11.081Z,20.30
2018-09-10T00:13:11.074Z,20.22
2018-09-10T00:14:11.083Z,20.30
2018-09-10T00:15:11.058Z,20.23
2018-09-10T00:16:11.038Z,20.13
2018-09-10T00:17:11.026Z,20.15
2018-09-10T00:18:11.013Z,20.22
2018-09-10T00:19:11.027Z,20.17
2018-09-10T00:20:11.005Z,20.15
2018-09-10T00:21:10.988Z,20.26
2018-09-10T00:22:10.975Z,20.12
2018-09-10T00:23:10.959Z,20.05
2018-09-10T00:24:10.968Z,20.07
2018-09-10T00:25:10.949Z,19.92
2018-09-10T00:26:10.929Z,19.90
2018-09-10T00:27:10.919Z,19.90
2018-09-10T00:28:10.907Z,19.92
2018-09-10T00:29:10.920Z,19.89
2018-09-10T00:30:10.907Z,19.89
2018-09-10T00:31:10.883Z,19.87
2018-09-10T00:32:10.864Z,19.89
2018-09-10T00:33:10.853Z,19.90
2018-09-10T00:34:10.857Z,19.89
2018-09-10T00:35:10.845Z,20.00
2018-09-10T00:36:10.838Z,20.07
2018-09-10T00:37:10.824Z,20.16
2018-09-10T00:38:10.808Z,20.17
2018-09-10T00:39:10.813Z,20.16
2018-09-10T00:40:10.775Z,20.33
2018-09-10T00:41:10.769Z,20.30
2018-09-10T00:42:10.776Z,20.30
2018-09-10T00:43:10.744Z,20.22
2018-09-10T00:44:10.762Z,20.27
2018-09-10T00:45:10.718Z,20.26
2018-09-10T00:46:10.709Z,20.27
2018-09-10T00:47:10.703Z,20.30
2018-09-10T00:48:10.692Z,20.20
2018-09-10T00:49:10.682Z,20.22
2018-09-10T00:50:10.687Z,20.25
2018-09-10T00:51:10.658Z,20.27
2018-09-10T00:52:10.649Z,20.22
2018-09-10T00:53:10.639Z,20.30
2018-09-10T00:54:10.639Z,20.30
2018-09-10T00:55:10.634Z,20.33
2018-09-10T00:56:10.606Z,20.37
2018-09-10T00:57:10.590Z,20.34
2018-09-10T00:58:10.576Z,20.41
2018-09-10T00:59:10.569Z,20.54
2018-09-10T01:00:10.576Z,20.50
2018-09-10T01:01:10.546Z,20.46
2018-09-10T01:02:10.534Z,20.61
2018-09-10T01:03:10.522Z,20.60
2018-09-10T01:04:10.519Z,20.69
2018-09-10T01:05:10.526Z,20.71
2018-09-10T01:06:10.492Z,20.61
2018-09-10T01:07:10.481Z,20.42
2018-09-10T01:08:10.467Z,20.54
2018-09-10T01:09:10.457Z,20.42
2018-09-10T01:10:10.466Z,20.40
2018-09-10T01:11:10.442Z,20.31
2018-09-10T01:12:10.424Z,20.23
2018-09-10T01:13:10.418Z,20.17
2018-09-10T01:14:10.413Z,20.16
2018-09-10T01:15:10.415Z,20.02
2018-09-10T01:16:10.386Z,20.01
2018-09-10T01:17:10.374Z,19.90
2018-09-10T01:18:10.359Z,19.92
2018-09-10T01:19:10.349Z,19.78
2018-09-10T01:20:10.354Z,19.80
2018-09-10T01:21:10.328Z,19.78
2018-09-10T01:22:10.318Z,19.64
2018-09-10T01:23:10.316Z,19.68
2018-09-10T01:24:10.295Z,19.80
2018-09-10T01:25:10.299Z,19.70
2018-09-10T01:26:10.276Z,19.76
2018-09-10T01:27:10.261Z,19.67
2018-09-10T01:28:10.253Z,19.60
2018-09-10T01:29:10.260Z,19.62
2018-09-10T01:30:10.256Z,19.55
2018-09-10T01:31:10.217Z,19.57
2018-09-10T01:32:10.223Z,19.45
2018-09-10T01:33:10.195Z,19.47
2018-09-10T01:34:10.200Z,19.47
2018-09-10T01:35:10.190Z,19.46
2018-09-10T01:36:10.160Z,19.50
2018-09-10T01:37:10.162Z,19.61
2018-09-10T01:38:10.170Z,19.50
2018-09-10T01:39:10.149Z,19.50
2018-09-10T01:40:10.143Z,19.46
2018-09-10T01:41:10.113Z,19.49
2018-09-10T01:42:10.097Z,19.34
2018-09-10T01:43:10.085Z,19.46
2018-09-10T01:44:10.074Z,19.45
2018-09-10T01:45:10.082Z,19.42
2018-09-10T01:46:10.074Z,19.46
2018-09-10T01:47:10.045Z,19.52
2018-09-10T01:48:10.035Z,19.34
2018-09-10T01:49:10.021Z,19.34
2018-09-10T01:50:10.024Z,19.25
2018-09-10T01:51:10.013Z,19.30
2018-09-10T01:52:10.004Z,19.24
2018-09-10T01:53:09.974Z,19.17
2018-09-10T01:54:09.965Z,19.17
2018-09-10T01:55:09.971Z,19.12
2018-09-10T01:56:09.952Z,19.15
2018-09-10T01:57:09.935Z,19.16
2018-09-10T01:58:09.927Z,19.16
2018-09-10T01:59:09.909Z,19.20
2018-09-10T02:00:09.915Z,19.20
2018-09-10T02:01:09.891Z,19.10
2018-09-10T02:02:09.889Z,19.09
2018-09-10T02:03:09.873Z,19.23
2018-09-10T02:04:09.858Z,19.16
2018-09-10T02:05:09.875Z,19.24
2018-09-10T02:06:09.836Z,19.20
2018-09-10T02:07:09.864Z,19.20
2018-09-10T02:08:09.813Z,19.25
2018-09-10T02:09:09.805Z,19.27
2018-09-10T02:10:09.812Z,19.23
2018-09-10T02:11:09.779Z,19.25
2018-09-10T02:12:09.768Z,19.23
2018-09-10T02:13:09.768Z,19.30
2018-09-10T02:14:09.745Z,19.25
2018-09-10T02:15:09.750Z,19.38
2018-09-10T02:16:09.787Z,19.42
2018-09-10T02:17:09.733Z,19.38
2018-09-10T02:18:09.704Z,19.27
2018-09-10T02:19:09.693Z,19.25
2018-09-10T02:20:09.704Z,19.25
2018-09-10T02:21:09.689Z,19.30
2018-09-10T02:22:09.656Z,19.17
2018-09-10T02:23:09.644Z,19.27
2018-09-10T02:24:09.640Z,19.20
2018-09-10T02:25:09.622Z,19.17
2018-09-10T02:26:09.630Z,19.20
2018-09-10T02:27:09.606Z,19.27
2018-09-10T02:28:09.590Z,19.10
2018-09-10T02:29:09.644Z,19.25
2018-09-10T02:30:09.570Z,19.25
2018-09-10T02:31:09.572Z,19.21
2018-09-10T02:32:09.552Z,19.20
2018-09-10T02:33:09.537Z,19.17
2018-09-10T02:34:09.524Z,19.17
2018-09-10T02:35:09.517Z,19.24
2018-09-10T02:36:09.523Z,19.15
2018-09-10T02:37:09.492Z,19.13
2018-09-10T02:38:09.480Z,19.27
2018-09-10T02:39:09.512Z,19.16
2018-09-10T02:40:09.456Z,19.25
2018-09-10T02:41:09.468Z,19.07
2018-09-10T02:42:09.438Z,19.25
2018-09-10T02:43:09.423Z,19.15
2018-09-10T02:44:09.418Z,19.23
2018-09-10T02:45:09.432Z,19.21
2018-09-10T02:46:09.410Z,19.21
2018-09-10T02:47:09.383Z,19.21
2018-09-10T02:48:09.370Z,19.20
2018-09-10T02:49:09.358Z,19.23
2018-09-10T02:50:09.373Z,19.21
2018-09-10T02:51:09.353Z,19.02
2018-09-10T02:52:09.321Z,19.15
2018-09-10T02:53:09.311Z,19.20
2018-09-10T02:54:09.323Z,19.09
2018-09-10T02:55:09.327Z,19.06
2018-09-10T02:56:09.313Z,19.10
2018-09-10T02:57:09.281Z,19.06
2018-09-10T02:58:09.255Z,19.01
2018-09-10T02:59:09.245Z,19.02
2018-09-10T03:00:09.234Z,19.02
2018-09-10T03:01:09.238Z,18.90
2018-09-10T03:02:09.216Z,18.93
2018-09-10T03:03:09.203Z,19.06
2018-09-10T03:04:09.188Z,19.02
2018-09-10T03:05:09.178Z,19.05
2018-09-10T03:06:09.184Z,19.01
2018-09-10T03:07:09.176Z,19.10
2018-09-10T03:08:09.167Z,19.05
2018-09-10T03:09:09.137Z,18.93
2018-09-10T03:10:09.121Z,18.93
2018-09-10T03:11:09.130Z,18.96
2018-09-10T03:12:09.107Z,18.89
2018-09-10T03:13:09.109Z,18.82
2018-09-10T03:14:09.076Z,18.79
2018-09-10T03:15:09.065Z,18.84
2018-09-10T03:16:09.071Z,18.87
2018-09-10T03:17:09.044Z,18.76
2018-09-10T03:18:09.040Z,18.75
2018-09-10T03:19:09.024Z,18.79
2018-09-10T03:20:09.007Z,18.82
2018-09-10T03:21:09.019Z,18.86
2018-09-10T03:22:08.987Z,18.84
2018-09-10T03:23:08.980Z,18.86
2018-09-10T03:24:09.070Z,18.96
2018-09-10T03:25:08.967Z,18.91
2018-09-10T03:26:08.958Z,18.91
2018-09-10T03:27:08.933Z,18.90
2018-09-10T03:28:08.920Z,18.93
2018-09-10T03:29:08.930Z,19.01
2018-09-10T03:30:09.031Z,18.93
2018-09-10T03:31:08.927Z,18.96
2018-09-10T03:32:08.875Z,18.96
2018-09-10T03:33:08.864Z,18.89
2018-09-10T03:34:08.853Z,18.87
2018-09-10T03:35:08.851Z,18.89
2018-09-10T03:36:08.861Z,18.82
2018-09-10T03:37:08.819Z,18.82
2018-09-10T03:38:08.808Z,18.86
2018-09-10T03:39:08.800Z,18.82
2018-09-10T03:40:08.789Z,18.86
2018-09-10T03:41:08.786Z,18.79
2018-09-10T03:42:08.779Z,18.79
2018-09-10T03:43:08.756Z,18.86
2018-09-10T03:44:08.742Z,18.78
2018-09-10T03:45:08.731Z,18.76
2018-09-10T03:46:08.719Z,18.83
2018-09-10T03:47:08.754Z,18.83
2018-09-10T03:48:08.697Z,18.74
2018-09-10T03:49:08.685Z,18.84
2018-09-10T03:50:08.681Z,18.79
2018-09-10T03:51:08.663Z,18.71
2018-09-10T03:52:08.668Z,18.76
2018-09-10T03:53:08.640Z,18.75
2018-09-10T03:54:08.628Z,18.69
2018-09-10T03:55:08.619Z,18.69
2018-09-10T03:56:08.609Z,18.75
2018-09-10T03:57:08.613Z,18.64
2018-09-10T03:58:08.603Z,18.68
2018-09-10T03:59:08.572Z,18.71
2018-09-10T04:00:08.561Z,18.82
2018-09-10T04:01:08.553Z,18.87
2018-09-10T04:02:08.560Z,18.96
2018-09-10T04:03:08.532Z,19.02
2018-09-10T04:04:08.534Z,19.16
2018-09-10T04:05:08.505Z,19.21
2018-09-10T04:06:08.493Z,19.28
2018-09-10T04:07:08.506Z,19.28
2018-09-10T04:08:08.497Z,19.35
2018-09-10T04:09:08.483Z,19.47
2018-09-10T04:10:08.448Z,19.49
2018-09-10T04:11:08.444Z,19.58
2018-09-10T04:12:08.444Z,19.68
2018-09-10T04:13:08.416Z,19.68
2018-09-10T04:14:08.417Z,19.76
2018-09-10T04:15:08.400Z,19.79
2018-09-10T04:16:08.390Z,19.83
2018-09-10T04:17:08.406Z,19.87
2018-09-10T04:18:08.360Z,19.89
2018-09-10T04:19:08.351Z,19.90
2018-09-10T04:20:08.338Z,19.87
2018-09-10T04:21:08.332Z,19.92
2018-09-10T04:22:08.333Z,19.94
2018-09-10T04:23:08.305Z,19.94
2018-09-10T04:24:08.294Z,19.94
2018-09-10T04:25:08.289Z,19.98
2018-09-10T04:26:08.363Z,20.04
2018-09-10T04:27:08.277Z,19.98
2018-09-10T04:28:08.251Z,20.04
2018-09-10T04:29:08.238Z,20.08
2018-09-10T04:30:08.230Z,20.08
2018-09-10T04:31:08.222Z,20.05
2018-09-10T04:32:08.230Z,20.08
2018-09-10T04:33:08.195Z,20.13
2018-09-10T04:34:08.189Z,20.08
2018-09-10T04:35:08.187Z,20.01
2018-09-10T04:36:08.248Z,20.10
2018-09-10T04:37:08.169Z,20.07
2018-09-10T04:38:08.144Z,20.12
2018-09-10T04:39:08.148Z,20.10
2018-09-10T04:40:08.120Z,20.08
2018-09-10T04:41:08.107Z,20.05
2018-09-10T04:42:08.171Z,20.08
2018-09-10T04:43:08.087Z,20.01
2018-09-10T04:44:08.081Z,20.02
2018-09-10T04:45:08.066Z,20.00
2018-09-10T04:46:08.058Z,20.04
2018-09-10T04:47:08.062Z,20.04
2018-09-10T04:48:08.031Z,20.04
2018-09-10T04:49:08.024Z,20.00
2018-09-10T04:50:08.024Z,20.02
2018-09-10T04:51:07.998Z,19.92
2018-09-10T04:52:08.009Z,19.87
2018-09-10T04:53:07.988Z,19.89
2018-09-10T04:54:07.967Z,19.92
2018-09-10T04:55:07.958Z,19.90
2018-09-10T04:56:07.944Z,19.87
2018-09-10T04:57:07.964Z,19.82
2018-09-10T04:58:08.030Z,19.76
2018-09-10T04:59:07.917Z,19.76
2018-09-10T05:00:07.900Z,19.80
2018-09-10T05:01:07.889Z,19.82
2018-09-10T05:02:07.901Z,19.80
2018-09-10T05:03:07.879Z,19.70
2018-09-10T05:04:07.858Z,19.70
2018-09-10T05:05:07.845Z,19.67
2018-09-10T05:06:07.835Z,19.71
2018-09-10T05:07:07.823Z,19.70
2018-09-10T05:08:07.838Z,19.70
2018-09-10T05:09:07.801Z,19.68
2018-09-10T05:10:07.848Z,19.72
2018-09-10T05:11:07.781Z,19.71
2018-09-10T05:12:07.771Z,19.70
2018-09-10T05:13:07.775Z,19.78
2018-09-10T05:14:07.758Z,19.78
2018-09-10T05:15:07.744Z,19.75
2018-09-10T05:16:07.728Z,19.78
2018-09-10T05:17:07.718Z,19.76
2018-09-10T05:18:07.719Z,19.78
2018-09-10T05:19:07.692Z,19.78
2018-09-10T05:20:07.682Z,19.80
2018-09-10T05:21:07.673Z,19.82
2018-09-10T05:22:07.700Z,19.82
2018-09-10T05:23:07.665Z,19.80
2018-09-10T05:24:07.641Z,19.80
2018-09-10T05:25:07.630Z,19.80
2018-09-10T05:26:07.615Z,19.92
2018-09-10T05:27:07.619Z,19.92
2018-09-10T05:28:07.707Z,19.95
2018-09-10T05:29:07.584Z,19.95
2018-09-10T05:30:07.574Z,19.94
2018-09-10T05:31:07.560Z,19.92
2018-09-10T05:32:07.550Z,19.94
2018-09-10T05:33:07.565Z,19.92
2018-09-10T05:34:07.529Z,19.90
2018-09-10T05:35:07.518Z,19.94
2018-09-10T05:36:07.507Z,19.94
2018-09-10T05:37:07.498Z,19.98
2018-09-10T05:38:07.501Z,20.05
2018-09-10T05:39:07.475Z,19.98
2018-09-10T05:40:07.464Z,20.01
2018-09-10T05:41:07.455Z,20.02
2018-09-10T05:42:07.445Z,20.10
2018-09-10T05:43:07.451Z,20.05
2018-09-10T05:44:07.419Z,20.05
2018-09-10T05:45:07.409Z,20.04
2018-09-10T05:46:07.399Z,20.07
2018-09-10T05:47:07.387Z,20.13
2018-09-10T05:48:07.397Z,20.13
2018-09-10T05:49:07.369Z,20.15
2018-09-10T05:50:07.357Z,20.19
2018-09-10T05:51:07.348Z,20.12
2018-09-10T05:52:07.334Z,20.13
2018-09-10T05:53:07.395Z,20.25
2018-09-10T05:54:07.313Z,20.15
2018-09-10T05:55:07.310Z,20.15
2018-09-10T05:56:07.290Z,20.17
2018-09-10T05:57:07.280Z,20.12
2018-09-10T05:58:07.286Z,20.13
2018-09-10T05:59:07.261Z,20.23
2018-09-10T06:00:07.247Z,20.10
2018-09-10T06:01:07.236Z,20.08
2018-09-10T06:02:07.225Z,20.16
2018-09-10T06:03:07.231Z,20.10
2018-09-10T06:04:07.204Z,20.13
2018-09-10T06:05:07.193Z,20.17
2018-09-10T06:06:07.196Z,20.13
2018-09-10T06:07:07.172Z,20.07
2018-09-10T06:08:07.175Z,20.13
2018-09-10T06:09:07.150Z,20.16
2018-09-10T06:10:07.142Z,20.12
2018-09-10T06:11:07.130Z,20.15
2018-09-10T06:12:07.129Z,20.16
2018-09-10T06:13:07.123Z,20.10
2018-09-10T06:14:07.095Z,20.22
2018-09-10T06:15:07.084Z,20.15
2018-09-10T06:16:07.083Z,20.12
2018-09-10T06:17:07.068Z,20.26
2018-09-10T06:18:07.078Z,20.16
2018-09-10T06:19:07.041Z,20.13
2018-09-10T06:20:07.029Z,20.27
2018-09-10T06:21:07.019Z,20.10
2018-09-10T06:22:07.011Z,20.25
2018-09-10T06:23:07.015Z,20.25
2018-09-10T06:24:06.987Z,20.20
2018-09-10T06:25:06.976Z,20.27
2018-09-10T06:26:06.964Z,20.17
2018-09-10T06:27:06.958Z,20.17
2018-09-10T06:28:06.962Z,20.17
2018-09-10T06:29:06.934Z,20.19
2018-09-10T06:30:06.927Z,20.26
2018-09-10T06:31:06.916Z,20.27
2018-09-10T06:32:06.899Z,20.19
2018-09-10T06:33:06.907Z,20.23
2018-09-10T06:34:06.900Z,20.15
2018-09-10T06:35:06.870Z,20.17
2018-09-10T06:36:06.857Z,20.15
2018-09-10T06:37:06.848Z,20.16
2018-09-10T06:38:06.834Z,20.13
2018-09-10T06:39:06.845Z,20.12
2018-09-10T06:40:06.825Z,20.22
2018-09-10T06:41:06.806Z,20.15
2018-09-10T06:42:06.798Z,20.15
2018-09-10T06:43:06.781Z,20.13
2018-09-10T06:44:06.789Z,20.26
2018-09-10T06:45:06.760Z,20.23
2018-09-10T06:46:06.749Z,20.27
2018-09-10T06:47:06.740Z,20.17
2018-09-10T06:48:06.727Z,20.17
2018-09-10T06:49:06.732Z,20.16
2018-09-10T06:50:06.707Z,20.16
2018-09-10T06:51:06.699Z,20.22
2018-09-10T06:52:06.687Z,20.27
2018-09-10T06:53:06.682Z,20.30
2018-09-10T06:54:06.704Z,20.25
2018-09-10T06:55:06.653Z,20.30
2018-09-10T06:56:06.644Z,20.27
2018-09-10T06:57:06.637Z,20.26
2018-09-10T06:58:06.623Z,20.17
2018-09-10T06:59:06.626Z,20.30
2018-09-10T07:00:06.615Z,20.25
2018-09-10T07:01:06.591Z,20.22
2018-09-10T07:02:06.579Z,20.26
2018-09-10T07:03:06.568Z,20.31
2018-09-10T07:04:06.576Z,20.27
2018-09-10T07:05:06.656Z,20.26
2018-09-10T07:06:06.536Z,20.27
2018-09-10T07:07:06.658Z,20.25
2018-09-10T07:08:06.521Z,20.30
2018-09-10T07:09:06.525Z,20.27
2018-09-10T07:10:06.495Z,20.27
2018-09-10T07:11:06.483Z,20.31
2018-09-10T07:12:06.473Z,20.31
2018-09-10T07:13:06.515Z,20.25
2018-09-10T07:14:06.471Z,20.23
2018-09-10T07:15:06.452Z,20.23
2018-09-10T07:16:06.430Z,20.27
2018-09-10T07:17:06.421Z,20.25
2018-09-10T07:18:06.409Z,20.26
2018-09-10T07:19:06.520Z,20.34
2018-09-10T07:20:06.398Z,20.27
2018-09-10T07:21:06.378Z,20.38
2018-09-10T07:22:06.367Z,20.30
2018-09-10T07:23:06.449Z,20.35
2018-09-10T07:24:06.362Z,20.34
2018-09-10T07:25:06.335Z,20.35
2018-09-10T07:26:06.376Z,20.37
2018-09-10T07:27:06.315Z,20.38
2018-09-10T07:28:06.303Z,20.31
2018-09-10T07:29:06.316Z,20.31
2018-09-10T07:30:06.282Z,20.30
2018-09-10T07:31:06.273Z,20.27
2018-09-10T07:32:06.263Z,20.26
2018-09-10T07:33:06.250Z,20.26
2018-09-10T07:34:06.257Z,20.23
2018-09-10T07:35:06.229Z,20.25
2018-09-10T07:36:06.219Z,20.23
2018-09-10T07:37:06.210Z,20.30
2018-09-10T07:38:06.200Z,20.27
2018-09-10T07:39:06.300Z,20.30
2018-09-10T07:40:06.175Z,20.27
2018-09-10T07:41:06.165Z,20.30
2018-09-10T07:42:06.156Z,20.27
2018-09-10T07:43:06.143Z,20.26
2018-09-10T07:44:06.183Z,20.27
2018-09-10T07:45:06.124Z,20.27
2018-09-10T07:46:06.114Z,20.31
2018-09-10T07:47:06.104Z,20.31
2018-09-10T07:48:06.095Z,20.33
2018-09-10T07:49:06.087Z,20.33
2018-09-10T07:50:06.091Z,20.34
2018-09-10T07:51:06.059Z,20.38
2018-09-10T07:52:06.049Z,20.33
2018-09-10T07:53:06.057Z,20.25
2018-09-10T07:54:06.028Z,20.19
2018-09-10T07:55:06.033Z,20.19
2018-09-10T07:56:06.005Z,20.17
2018-09-10T07:57:05.995Z,20.15
2018-09-10T07:58:05.985Z,20.16
2018-09-10T07:59:05.974Z,20.23
2018-09-10T08:00:05.980Z,20.19
2018-09-10T08:01:05.952Z,20.17
2018-09-10T08:02:05.942Z,20.19
2018-09-10T08:03:06.054Z,20.16
2018-09-10T08:04:05.921Z,20.16
2018-09-10T08:05:05.941Z,20.10
2018-09-10T08:06:05.899Z,20.12
2018-09-10T08:07:05.887Z,20.13
2018-09-10T08:08:05.879Z,20.13
2018-09-10T08:09:05.936Z,20.12
2018-09-10T08:10:06.147Z,20.13
2018-09-10T08:11:05.844Z,20.08
2018-09-10T08:12:06.063Z,20.15
2018-09-10T08:13:05.822Z,20.08
2018-09-10T08:14:05.813Z,20.12
2018-09-10T08:15:05.824Z,20.25
2018-09-10T08:16:05.860Z,20.16
2018-09-10T08:17:05.868Z,20.25
2018-09-10T08:18:05.771Z,20.25
2018-09-10T08:19:05.771Z,20.23
2018-09-10T08:20:05.788Z,20.26
2018-09-10T08:21:05.746Z,20.31
2018-09-10T08:22:05.740Z,20.33
2018-09-10T08:23:05.717Z,20.38
2018-09-10T08:24:05.744Z,20.40
2018-09-10T08:25:05.728Z,20.44
2018-09-10T08:26:05.699Z,20.44
2018-09-10T08:27:05.674Z,20.42
2018-09-10T08:28:05.671Z,20.57
2018-09-10T08:29:05.652Z,20.48
2018-09-10T08:30:05.640Z,20.53
2018-09-10T08:31:05.654Z,20.60
2018-09-10T08:32:05.620Z,20.60
2018-09-10T08:33:05.610Z,20.58
2018-09-10T08:34:05.601Z,20.60
2018-09-10T08:35:05.590Z,20.56
2018-09-10T08:36:05.593Z,20.58
2018-09-10T08:37:05.567Z,20.69
2018-09-10T08:38:05.558Z,20.60
2018-09-10T08:39:05.547Z,20.66
2018-09-10T08:40:05.535Z,20.64
2018-09-10T08:41:05.542Z,20.61
2018-09-10T08:42:05.514Z,20.66
2018-09-10T08:43:05.504Z,20.69
2018-09-10T08:44:05.495Z,20.78
2018-09-10T08:45:05.483Z,20.71
2018-09-10T08:46:05.504Z,20.73
2018-09-10T08:47:05.463Z,20.78
2018-09-10T08:48:05.454Z,20.83
2018-09-10T08:49:05.445Z,20.82
2018-09-10T08:50:05.436Z,20.88
2018-09-10T08:51:05.435Z,20.88
2018-09-10T08:52:05.412Z,20.88
2018-09-10T08:53:05.399Z,20.94
2018-09-10T08:54:05.449Z,20.85
2018-09-10T08:55:05.592Z,20.98
2018-09-10T08:56:05.621Z,20.97
2018-09-10T08:57:05.357Z,20.93
2018-09-10T08:58:05.347Z,21.03
2018-09-10T08:59:05.336Z,21.00
2018-09-10T09:00:05.399Z,21.03
2018-09-10T09:01:05.333Z,21.05
2018-09-10T09:02:05.308Z,21.05
2018-09-10T09:03:05.337Z,21.01
2018-09-10T09:04:05.282Z,21.11
2018-09-10T09:05:05.280Z,21.11
2018-09-10T09:06:05.377Z,21.13
2018-09-10T09:07:05.260Z,21.06
2018-09-10T09:08:05.389Z,21.13
2018-09-10T09:09:05.243Z,21.13
2018-09-10T09:10:05.216Z,21.16
2018-09-10T09:11:05.226Z,21.12
2018-09-10T09:12:05.199Z,21.16
2018-09-10T09:13:05.207Z,21.19
2018-09-10T09:14:05.193Z,21.15
2018-09-10T09:15:05.173Z,21.15
2018-09-10T09:16:05.172Z,21.16
2018-09-10T09:17:05.158Z,21.11
2018-09-10T09:18:05.132Z,21.18
2018-09-10T09:19:05.133Z,21.19
2018-09-10T09:20:05.109Z,21.28
2018-09-10T09:21:06.243Z,21.19
2018-09-10T09:22:05.089Z,21.30
2018-09-10T09:23:05.383Z,21.30
2018-09-10T09:24:05.066Z,21.26
2018-09-10T09:25:05.055Z,21.26
2018-09-10T09:26:05.045Z,21.31
2018-09-10T09:27:05.052Z,21.34
2018-09-10T09:28:05.021Z,21.37
2018-09-10T09:29:05.011Z,21.37
2018-09-10T09:30:05.082Z,21.36
2018-09-10T09:31:06.906Z,21.38
2018-09-10T09:32:04.994Z,21.36
2018-09-10T09:33:04.965Z,21.37
2018-09-10T09:34:04.963Z,21.34
2018-09-10T09:35:04.945Z,21.37
2018-09-10T09:36:04.940Z,21.43
2018-09-10T09:37:04.941Z,21.48
2018-09-10T09:38:04.920Z,21.45
2018-09-10T09:39:04.899Z,21.49
2018-09-10T09:40:04.888Z,21.52
2018-09-10T09:41:06.250Z,21.51
2018-09-10T09:42:04.887Z,21.49
2018-09-10T09:43:04.857Z,21.51
2018-09-10T09:44:04.844Z,21.55
2018-09-10T09:45:04.839Z,21.49
2018-09-10T09:46:04.827Z,21.46
2018-09-10T09:47:06.316Z,21.56
2018-09-10T09:48:04.803Z,21.49
2018-09-10T09:49:04.790Z,21.55
2018-09-10T09:50:04.776Z,21.48
2018-09-10T09:51:04.777Z,21.51
2018-09-10T09:52:04.769Z,21.61
2018-09-10T09:53:04.746Z,21.55
2018-09-10T09:54:04.736Z,21.56
2018-09-10T09:55:04.725Z,21.67
2018-09-10T09:56:04.718Z,21.67
2018-09-10T09:57:04.718Z,21.66
2018-09-10T09:58:04.692Z,21.66
2018-09-10T09:59:04.683Z,21.64
2018-09-10T10:00:04.669Z,21.63
2018-09-10T10:01:04.660Z,21.66
2018-09-10T10:02:04.675Z,21.68
2018-09-10T10:03:04.645Z,21.64
2018-09-10T10:04:04.649Z,21.66
2018-09-10T10:05:04.619Z,21.71
2018-09-10T10:06:04.601Z,21.66
2018-09-10T10:07:04.620Z,21.75
2018-09-10T10:08:04.581Z,21.82
2018-09-10T10:09:04.583Z,21.75
2018-09-10T10:10:04.602Z,21.75
2018-09-10T10:11:04.560Z,21.75
2018-09-10T10:12:04.621Z,21.75
2018-09-10T10:13:04.542Z,21.79
2018-09-10T10:14:04.517Z,21.79
2018-09-10T10:15:04.501Z,21.75
2018-09-10T10:16:04.491Z,21.77
2018-09-10T10:17:04.522Z,21.85
2018-09-10T10:18:04.511Z,21.79
2018-09-10T10:19:04.463Z,21.86
2018-09-10T10:20:04.606Z,21.85
2018-09-10T10:21:04.436Z,21.89
2018-09-10T10:22:04.521Z,21.96
2018-09-10T10:23:04.434Z,21.86
2018-09-10T10:24:04.412Z,21.90
2018-09-10T10:25:04.399Z,21.86
2018-09-10T10:26:04.381Z,21.91
2018-09-10T10:27:04.371Z,21.89
2018-09-10T10:28:04.433Z,21.82
2018-09-10T10:29:04.350Z,21.96
2018-09-10T10:30:04.340Z,21.93
2018-09-10T10:31:04.329Z,21.98
2018-09-10T10:32:04.318Z,22.01
2018-09-10T10:33:04.321Z,22.05
2018-09-10T10:34:04.295Z,22.06
2018-09-10T10:35:04.286Z,21.98
2018-09-10T10:36:04.286Z,22.05
2018-09-10T10:37:04.270Z,22.14
2018-09-10T10:38:04.267Z,22.14
2018-09-10T10:39:04.273Z,22.12
2018-09-10T10:40:04.232Z,22.14
2018-09-10T10:41:04.218Z,22.19
2018-09-10T10:42:04.209Z,22.09
2018-09-10T10:43:04.225Z,22.14
2018-09-10T10:44:04.185Z,22.09
2018-09-10T10:45:04.176Z,22.06
2018-09-10T10:46:04.164Z,22.04
2018-09-10T10:47:04.154Z,22.17
2018-09-10T10:48:04.160Z,22.17
2018-09-10T10:49:04.130Z,22.21
2018-09-10T10:50:04.121Z,22.20
2018-09-10T10:51:04.110Z,22.17
2018-09-10T10:52:04.099Z,22.20
2018-09-10T10:53:04.108Z,22.20
2018-09-10T10:54:04.078Z,22.27
2018-09-10T10:55:04.066Z,22.27
2018-09-10T10:56:04.054Z,22.33
2018-09-10T10:57:04.048Z,22.31
2018-09-10T10:58:04.052Z,22.35
2018-09-10T10:59:04.028Z,22.30
2018-09-10T11:00:04.010Z,22.31
2018-09-10T11:01:04.001Z,22.31
2018-09-10T11:02:03.989Z,22.30
2018-09-10T11:03:03.992Z,22.35
2018-09-10T11:04:04.016Z,22.35
2018-09-10T11:05:03.955Z,22.38
2018-09-10T11:06:03.945Z,22.39
2018-09-10T11:07:03.932Z,22.33
2018-09-10T11:08:03.959Z,22.30
2018-09-10T11:09:03.912Z,22.30
2018-09-10T11:10:03.905Z,22.41
2018-09-10T11:11:03.893Z,22.41
2018-09-10T11:12:03.877Z,22.46
2018-09-10T11:13:03.866Z,22.48
2018-09-10T11:14:03.870Z,22.41
2018-09-10T11:15:03.851Z,22.51
2018-09-10T11:16:03.845Z,22.56
2018-09-10T11:17:03.848Z,22.46
2018-09-10T11:18:03.809Z,22.54
2018-09-10T11:19:03.819Z,22.56
2018-09-10T11:20:03.787Z,22.54
2018-09-10T11:21:03.782Z,22.57
2018-09-10T11:22:03.768Z,22.64
2018-09-10T11:23:03.753Z,22.63
2018-09-10T11:24:03.757Z,22.60
2018-09-10T11:25:03.735Z,22.59
2018-09-10T11:26:03.720Z,22.66
2018-09-10T11:27:03.705Z,22.76
2018-09-10T11:28:03.696Z,22.82
2018-09-10T11:29:03.702Z,22.89
2018-09-10T11:30:03.672Z,22.85
2018-09-10T11:31:03.664Z,22.99
2018-09-10T11:32:03.655Z,22.99
2018-09-10T11:33:03.638Z,23.03
2018-09-10T11:34:03.659Z,22.96
2018-09-10T11:35:03.615Z,23.14
2018-09-10T11:36:03.622Z,23.12
2018-09-10T11:37:03.592Z,23.11
2018-09-10T11:38:03.584Z,23.12
2018-09-10T11:39:03.587Z,23.09
2018-09-10T11:40:03.560Z,23.11
2018-09-10T11:41:03.548Z,23.14
2018-09-10T11:42:03.537Z,23.15
2018-09-10T11:43:03.530Z,23.22
2018-09-10T11:44:03.543Z,23.31
2018-09-10T11:45:03.508Z,23.32
2018-09-10T11:46:03.491Z,23.31
2018-09-10T11:47:03.489Z,23.37
2018-09-10T11:48:03.474Z,23.49
2018-09-10T11:49:03.481Z,23.52
2018-09-10T11:50:03.451Z,23.54
2018-09-10T11:51:03.439Z,23.77
2018-09-10T11:52:03.426Z,23.72
2018-09-10T11:53:03.413Z,23.94
2018-09-10T11:54:03.457Z,24.08
2018-09-10T11:55:03.392Z,24.27
2018-09-10T11:56:03.380Z,24.37
2018-09-10T11:57:03.371Z,24.48
2018-09-10T11:58:03.368Z,24.61
2018-09-10T11:59:03.391Z,24.84
2018-09-10T12:00:03.341Z,24.93
2018-09-10T12:01:03.327Z,25.09
2018-09-10T12:02:03.371Z,25.14
2018-09-10T12:03:03.304Z,25.31
2018-09-10T12:04:03.318Z,25.44
2018-09-10T12:05:03.290Z,25.53
2018-09-10T12:06:03.277Z,25.56
2018-09-10T12:07:03.259Z,25.48
2018-09-10T12:08:03.248Z,25.46
2018-09-10T12:09:03.255Z,25.38
2018-09-10T12:10:03.231Z,25.30
2018-09-10T12:11:03.229Z,25.23
2018-09-10T12:12:03.205Z,25.29
2018-09-10T12:13:03.193Z,25.12
2018-09-10T12:14:03.219Z,25.08
2018-09-10T12:15:03.175Z,25.01
2018-09-10T12:16:03.161Z,24.93
2018-09-10T12:17:03.153Z,24.93
2018-09-10T12:18:03.139Z,24.92
2018-09-10T12:19:03.127Z,24.92
2018-09-10T12:20:03.143Z,25.09
2018-09-10T12:21:03.107Z,25.17
2018-09-10T12:22:03.101Z,25.39
2018-09-10T12:23:03.084Z,25.53
2018-09-10T12:24:03.075Z,25.72
2018-09-10T12:25:03.080Z,25.86
2018-09-10T12:26:03.057Z,26.04
2018-09-10T12:27:03.050Z,26.27
2018-09-10T12:28:03.046Z,26.34
2018-09-10T12:29:03.022Z,26.47
2018-09-10T12:30:03.027Z,26.60
2018-09-10T12:31:03.006Z,26.71
2018-09-10T12:32:02.989Z,26.76
2018-09-10T12:33:02.979Z,26.83
2018-09-10T12:34:02.965Z,26.84
2018-09-10T12:35:02.970Z,26.86
2018-09-10T12:36:02.943Z,26.86
2018-09-10T12:37:02.937Z,26.90
2018-09-10T12:38:02.927Z,26.91
2018-09-10T12:39:02.922Z,26.98
2018-09-10T12:40:02.917Z,27.11
2018-09-10T12:41:02.889Z,27.13
2018-09-10T12:42:02.885Z,27.02
2018-09-10T12:43:02.881Z,27.08
2018-09-10T12:44:02.859Z,26.96
2018-09-10T12:45:02.863Z,26.90
2018-09-10T12:46:02.837Z,26.73
2018-09-10T12:47:02.827Z,26.61
2018-09-10T12:48:02.821Z,26.50
2018-09-10T12:49:02.807Z,26.46
2018-09-10T12:50:02.809Z,26.47
2018-09-10T12:51:02.783Z,26.41
2018-09-10T12:52:02.772Z,26.34